createdAt,value
2018-11-21T00:01:21.330Z,7.27
2018-11-21T00:03:51.763Z,7.24
2018-11-21T00:06:22.017Z,7.20
2018-11-21T00:08:51.448Z,7.35
2018-11-21T00:11:23.202Z,7.29
2018-11-21T00:13:52.944Z,7.28
2018-11-21T00:16:23.204Z,7.27
2018-11-21T00:18:53.242Z,7.26
2018-11-21T00:21:22.884Z,7.18
2018-11-21T00:24:37.436Z,7.21
2018-11-21T00:27:06.603Z,7.24
2018-11-21T00:29:35.839Z,7.17
2018-11-21T00:32:24.532Z,7.06
2018-11-21T00:34:53.706Z,7.10
2018-11-21T00:37:23.980Z,7.15
2018-11-21T00:39:54.413Z,7.19
2018-11-21T00:42:27.090Z,7.22
2018-11-21T00:44:58.152Z,7.15
2018-11-21T00:47:27.000Z,7.07
2018-11-21T00:49:56.734Z,7.16
2018-11-21T00:52:29.517Z,7.08
2018-11-21T00:55:02.425Z,7.07
2018-11-21T00:57:32.486Z,7.05
2018-11-21T01:00:15.645Z,6.98
2018-11-21T01:02:45.573Z,7.08
2018-11-21T01:05:15.327Z,7.12
2018-11-21T01:07:47.249Z,7.17
2018-11-21T01:10:20.671Z,7.13
2018-11-21T01:12:54.721Z,6.95
2018-11-21T01:15:28.825Z,7.07
2018-11-21T01:18:01.704Z,7.24
2018-11-21T01:20:37.789Z,7.19
2018-11-21T01:23:08.622Z,7.26
2018-11-21T01:25:41.275Z,7.20
2018-11-21T01:28:10.643Z,7.27
2018-11-21T01:30:42.341Z,7.27
2018-11-21T01:33:14.366Z,7.13
2018-11-21T01:35:46.247Z,7.16
2018-11-21T01:38:16.665Z,7.15
2018-11-21T01:40:46.246Z,7.23
2018-11-21T01:43:16.300Z,7.23
2018-11-21T01:45:47.905Z,7.27
2018-11-21T01:48:18.311Z,7.31
2018-11-21T01:50:54.757Z,7.19
2018-11-21T01:53:24.826Z,7.17
2018-11-21T01:55:54.543Z,7.23
2018-11-21T01:58:31.179Z,7.19
2018-11-21T02:01:01.944Z,7.26
2018-11-21T02:03:39.265Z,7.24
2018-11-21T02:06:10.062Z,7.06
2018-11-21T02:08:40.082Z,6.99
2018-11-21T02:11:10.054Z,7.03
2018-11-21T02:13:41.395Z,7.01
2018-11-21T02:16:12.830Z,7.02
2018-11-21T02:18:42.081Z,7.04
2018-11-21T02:21:11.649Z,6.97
2018-11-21T02:23:40.961Z,6.96
2018-11-21T02:26:11.732Z,6.93
2018-11-21T02:28:41.836Z,6.89
2018-11-21T02:31:16.218Z,6.53
2018-11-21T02:33:46.200Z,6.85
2018-11-21T02:36:16.010Z,6.84
2018-11-21T02:38:45.498Z,6.82
2018-11-21T02:41:15.090Z,6.89
2018-11-21T02:43:44.191Z,6.96
2018-11-21T02:46:14.288Z,6.95
2018-11-21T02:48:46.062Z,6.87
2018-11-21T02:51:16.764Z,6.95
2018-11-21T02:53:56.293Z,6.99
2018-11-21T02:57:02.959Z,6.93
2018-11-21T02:59:32.448Z,6.95
2018-11-21T03:02:01.714Z,6.95
2018-11-21T03:04:31.324Z,6.97
2018-11-21T03:07:01.548Z,7.03
2018-11-21T03:09:31.149Z,6.92
2018-11-21T03:12:00.445Z,6.98
2018-11-21T03:14:30.268Z,6.99
2018-11-21T03:17:00.722Z,6.93
2018-11-21T03:19:30.709Z,7.06
2018-11-21T03:22:01.140Z,7.09
2018-11-21T03:24:30.653Z,7.09
2018-11-21T03:27:03.582Z,7.07
2018-11-21T03:29:38.438Z,7.05
2018-11-21T03:32:08.074Z,7.07
2018-11-21T03:34:44.506Z,6.97
2018-11-21T03:37:21.083Z,6.78
2018-11-21T03:39:54.150Z,6.81
2018-11-21T03:42:26.563Z,6.86
2018-11-21T03:45:20.684Z,6.90
2018-11-21T03:50:55.861Z,6.90
2018-11-21T03:53:59.231Z,6.88
2018-11-21T03:56:57.576Z,6.85
2018-11-21T04:02:16.728Z,6.67
2018-11-21T04:04:46.664Z,6.64
2018-11-21T04:07:36.839Z,6.60
2018-11-21T04:10:46.916Z,6.47
2018-11-21T04:13:17.726Z,6.48
2018-11-21T04:16:05.810Z,6.53
2018-11-21T04:18:35.603Z,6.62
2018-11-21T04:21:53.063Z,6.65
2018-11-21T04:37:08.742Z,6.44
2018-11-21T04:39:38.095Z,6.38
2018-11-21T04:42:07.305Z,6.37
2018-11-21T04:44:39.195Z,6.37
2018-11-21T04:47:14.044Z,6.43
2018-11-21T04:49:50.971Z,6.43
2018-11-21T04:56:01.064Z,6.47
2018-11-21T04:58:33.292Z,6.46
2018-11-21T05:01:10.112Z,6.50
2018-11-21T05:03:40.808Z,6.47
2018-11-21T05:06:10.080Z,6.51
2018-11-21T05:08:41.047Z,6.46
2018-11-21T05:11:11.130Z,6.35
2018-11-21T05:13:42.921Z,6.25
2018-11-21T05:16:13.161Z,6.25
2018-11-21T05:18:42.883Z,6.33
2018-11-21T05:21:13.344Z,6.32
2018-11-21T05:23:43.096Z,6.30
2018-11-21T05:26:13.045Z,6.21
2018-11-21T05:28:42.408Z,6.25
2018-11-21T05:31:12.058Z,6.25
2018-11-21T05:33:41.632Z,6.10
2018-11-21T05:36:11.190Z,6.07
2018-11-21T05:38:54.674Z,5.94
2018-11-21T05:41:24.072Z,5.69
2018-11-21T05:44:02.699Z,5.37
2018-11-21T05:46:41.849Z,5.33
2018-11-21T05:49:11.625Z,5.32
2018-11-21T05:51:41.525Z,5.18
2018-11-21T05:54:11.510Z,5.07
2018-11-21T05:56:44.411Z,5.00
2018-11-21T05:59:13.914Z,4.95
2018-11-21T06:01:45.077Z,4.98
2018-11-21T06:04:19.342Z,5.00
2018-11-21T06:06:49.355Z,4.98
2018-11-21T06:09:18.538Z,4.98
2018-11-21T06:11:54.882Z,5.02
2018-11-21T06:14:32.964Z,5.02
2018-11-21T06:17:02.192Z,4.93
2018-11-21T06:19:33.387Z,4.93
2018-11-21T06:22:02.673Z,4.80
2018-11-21T06:24:35.110Z,4.56
2018-11-21T06:27:06.193Z,4.82
2018-11-21T06:29:42.934Z,4.85
2018-11-21T06:32:20.065Z,4.35
2018-11-21T06:34:52.697Z,4.83
2018-11-21T06:37:29.922Z,4.83
2018-11-21T06:40:00.942Z,4.84
2018-11-21T06:42:39.852Z,4.87
2018-11-21T06:45:13.712Z,4.90
2018-11-21T06:47:48.156Z,4.86
2018-11-21T06:50:22.754Z,4.77
2018-11-21T06:52:52.555Z,4.56
2018-11-21T06:55:24.206Z,4.62
2018-11-21T06:57:55.727Z,4.73
2018-11-21T07:00:27.857Z,4.72
2018-11-21T07:03:09.682Z,4.63
2018-11-21T07:05:40.655Z,4.54
2018-11-21T07:08:11.718Z,4.50
2018-11-21T07:10:41.092Z,4.43
2018-11-21T07:13:11.755Z,4.55
2018-11-21T07:15:44.448Z,4.53
2018-11-21T07:18:27.724Z,4.66
2018-11-21T07:20:59.565Z,4.81
2018-11-21T07:23:41.193Z,4.88
2018-11-21T07:26:10.420Z,4.84
2018-11-21T07:28:43.288Z,4.81
2018-11-21T07:31:13.678Z,4.81
2018-11-21T07:33:46.506Z,4.75
2018-11-21T07:36:14.674Z,4.75
2018-11-21T07:41:33.724Z,4.73
2018-11-21T07:44:23.353Z,4.78
2018-11-21T07:47:05.412Z,4.73
2018-11-21T07:49:54.588Z,4.61
2018-11-21T07:52:44.378Z,4.75
2018-11-21T07:55:33.134Z,4.78
2018-11-21T07:58:24.189Z,4.94
2018-11-21T08:01:21.575Z,4.91
2018-11-21T08:04:03.234Z,4.91
2018-11-21T08:06:36.761Z,5.03
2018-11-21T08:09:40.312Z,5.09
2018-11-21T08:12:42.746Z,5.04
2018-11-21T08:15:50.579Z,5.07
2018-11-21T08:25:12.954Z,5.42
2018-11-21T08:28:16.569Z,5.41
2018-11-21T08:31:30.441Z,5.50
2018-11-21T08:34:39.806Z,5.59
2018-11-21T08:37:14.394Z,5.68
2018-11-21T08:39:46.024Z,5.82
2018-11-21T08:42:20.961Z,5.81
2018-11-21T08:45:14.299Z,5.98
2018-11-21T08:48:24.924Z,6.10
2018-11-21T08:50:52.130Z,6.20
2018-11-21T08:53:22.137Z,6.24
2018-11-21T08:55:52.825Z,6.58
2018-11-21T08:58:30.106Z,7.86
2018-11-21T09:13:19.509Z,12.81
2018-11-21T09:16:08.060Z,11.27
2018-11-21T09:18:49.581Z,9.50
2018-11-21T09:21:38.237Z,8.48
2018-11-21T09:24:08.522Z,8.24
2018-11-21T09:26:56.868Z,8.90
2018-11-21T09:30:07.702Z,10.57
2018-11-21T09:32:56.113Z,12.07
2018-11-21T09:35:40.453Z,11.83
2018-11-21T09:38:29.638Z,12.83
2018-11-21T09:50:33.264Z,14.01
2018-11-21T09:53:14.060Z,13.77
2018-11-21T09:59:50.529Z,12.50
2018-11-21T10:06:40.067Z,10.75
2018-11-21T10:09:47.816Z,10.95
2018-11-21T10:12:37.293Z,12.10
2018-11-21T10:15:18.246Z,12.39
2018-11-21T10:18:31.603Z,12.81
2018-11-21T10:24:23.848Z,12.70
2018-11-21T10:27:31.341Z,12.04
2018-11-21T10:33:28.854Z,10.85
2018-11-21T10:36:03.755Z,10.67
2018-11-21T10:41:56.016Z,10.19
2018-11-21T10:48:16.217Z,10.02
2018-11-21T10:53:47.622Z,10.13
2018-11-21T10:56:23.695Z,10.42
2018-11-21T10:58:55.709Z,11.15
2018-11-21T11:02:02.905Z,12.36
2018-11-21T11:05:30.522Z,12.63
2018-11-21T11:09:00.298Z,12.56
2018-11-21T11:15:15.528Z,13.20
2018-11-21T11:21:41.117Z,13.92
2018-11-21T11:28:06.162Z,14.07
2018-11-21T11:31:38.091Z,14.20
2018-11-21T11:35:12.589Z,13.75
2018-11-21T11:38:47.286Z,13.43
2018-11-21T11:51:29.046Z,11.71
2018-11-21T11:54:25.622Z,12.43
2018-11-21T11:57:20.574Z,12.91
2018-11-21T12:00:18.902Z,12.63
2018-11-21T12:06:31.149Z,13.20
2018-11-21T12:09:29.762Z,13.57
2018-11-21T12:12:21.495Z,13.02
2018-11-21T12:18:38.203Z,12.43
2018-11-21T12:21:45.733Z,12.53
2018-11-21T12:24:55.354Z,12.22
2018-11-21T12:27:49.289Z,12.07
2018-11-21T12:30:59.407Z,12.27
2018-11-21T12:34:10.315Z,12.53
2018-11-21T12:37:02.549Z,11.93
2018-11-21T12:39:53.787Z,11.93
2018-11-21T12:42:41.296Z,12.22
2018-11-21T12:45:59.084Z,12.27
2018-11-21T12:49:01.553Z,12.45
2018-11-21T12:52:31.625Z,12.03
2018-11-21T12:55:52.976Z,12.53
2018-11-21T12:58:45.449Z,12.69
2018-11-21T13:01:53.688Z,12.29
2018-11-21T13:04:54.477Z,12.06
2018-11-21T13:07:49.712Z,11.50
2018-11-21T13:10:59.686Z,11.92
2018-11-21T13:13:53.087Z,11.68
2018-11-21T13:17:01.496Z,11.41
2018-11-21T13:20:09.865Z,11.41
2018-11-21T13:23:07.890Z,11.56
2018-11-21T13:25:58.200Z,11.24
2018-11-21T13:28:45.888Z,10.80
2018-11-21T13:31:53.676Z,10.02
2018-11-21T13:35:01.019Z,10.04
2018-11-21T13:38:08.351Z,10.14
2018-11-21T13:44:27.100Z,10.10
2018-11-21T13:47:17.155Z,10.00
2018-11-21T13:50:21.220Z,9.75
2018-11-21T13:53:28.832Z,9.85
2018-11-21T14:03:01.310Z,9.30
2018-11-21T14:05:34.791Z,9.28
2018-11-21T14:08:14.528Z,9.60
2018-11-21T14:10:52.289Z,9.69
2018-11-21T14:13:26.373Z,9.68
2018-11-21T14:16:33.907Z,9.50
2018-11-21T14:19:10.871Z,8.92
2018-11-21T14:21:38.655Z,9.35
2018-11-21T14:24:13.976Z,9.46
2018-11-21T14:26:50.569Z,9.38
2018-11-21T14:29:31.751Z,9.46
2018-11-21T14:32:24.208Z,9.37
2018-11-21T14:35:06.774Z,9.42
2018-11-21T14:41:14.767Z,9.02
2018-11-21T14:43:58.586Z,8.52
2018-11-21T14:47:08.415Z,8.21
2018-11-21T14:49:58.463Z,8.09
2018-11-21T14:52:48.006Z,8.47
2018-11-21T14:55:18.295Z,8.58
2018-11-21T14:57:50.598Z,8.46
2018-11-21T15:03:47.948Z,8.53
2018-11-21T15:06:24.411Z,8.54
2018-11-21T15:08:57.353Z,8.44
2018-11-21T15:11:55.819Z,8.42
2018-11-21T15:18:07.372Z,7.71
2018-11-21T15:21:16.669Z,7.40
2018-11-21T15:24:19.670Z,7.29
2018-11-21T15:27:21.310Z,7.46
2018-11-21T15:30:00.081Z,7.74
